sensor_id;sensor_type;location;lat;lon;timestamp;P1;durP1;ratioP1;P2;durP2;ratioP2
14686;SDS011;7431;49.440;11.084;2023-02-19T00:02:22;8.50;;;6.07;;
14686;SDS011;7431;49.440;11.084;2023-02-19T00:04:47;7.55;;;5.90;;
14686;SDS011;7431;49.440;11.084;2023-02-19T00:07:13;9.25;;;6.88;;
14686;SDS011;7431;49.440;11.084;2023-02-19T00:09:38;8.90;;;6.15;;
14686;SDS011;7431;49.440;11.084;2023-02-19T00:12:05;7.97;;;6.43;;
14686;SDS011;7431;49.440;11.084;2023-02-19T00:14:30;10.20;;;6.85;;
14686;SDS011;7431;49.440;11.084;2023-02-19T00:16:56;8.40;;;6.22;;
14686;SDS011;7431;49.440;11.084;2023-02-19T00:19:22;9.70;;;6.38;;
14686;SDS011;7431;49.440;11.084;2023-02-19T00:21:51;7.97;;;6.30;;
14686;SDS011;7431;49.440;11.084;2023-02-19T00:24:17;7.72;;;6.05;;
14686;SDS011;7431;49.440;11.084;2023-02-19T00:26:43;8.23;;;6.00;;
14686;SDS011;7431;49.440;11.084;2023-02-19T00:29:14;8.23;;;6.30;;
14686;SDS011;7431;49.440;11.084;2023-02-19T00:31:41;8.88;;;5.97;;
14686;SDS011;7431;49.440;11.084;2023-02-19T00:34:08;8.35;;;5.85;;
14686;SDS011;7431;49.440;11.084;2023-02-19T00:36:35;8.73;;;6.32;;
14686;SDS011;7431;49.440;11.084;2023-02-19T00:39:03;6.95;;;5.50;;
14686;SDS011;7431;49.440;11.084;2023-02-19T00:41:29;7.40;;;5.88;;
14686;SDS011;7431;49.440;11.084;2023-02-19T00:43:56;7.13;;;5.97;;
14686;SDS011;7431;49.440;11.084;2023-02-19T00:46:27;8.40;;;5.95;;
14686;SDS011;7431;49.440;11.084;2023-02-19T00:48:55;8.43;;;6.05;;
14686;SDS011;7431;49.440;11.084;2023-02-19T00:51:22;7.32;;;5.95;;
14686;SDS011;7431;49.440;11.084;2023-02-19T00:53:50;6.85;;;5.32;;
14686;SDS011;7431;49.440;11.084;2023-02-19T00:56:16;8.18;;;5.50;;
14686;SDS011;7431;49.440;11.084;2023-02-19T00:58:42;6.72;;;5.45;;
14686;SDS011;7431;49.440;11.084;2023-02-19T01:01:08;6.68;;;5.40;;
14686;SDS011;7431;49.440;11.084;2023-02-19T01:03:34;8.20;;;5.82;;
14686;SDS011;7431;49.440;11.084;2023-02-19T01:06:01;8.02;;;5.78;;
14686;SDS011;7431;49.440;11.084;2023-02-19T01:08:28;8.30;;;5.80;;
14686;SDS011;7431;49.440;11.084;2023-02-19T01:10:55;8.00;;;5.78;;
14686;SDS011;7431;49.440;11.084;2023-02-19T01:13:21;8.73;;;5.32;;
14686;SDS011;7431;49.440;11.084;2023-02-19T01:15:46;7.85;;;5.95;;
14686;SDS011;7431;49.440;11.084;2023-02-19T01:18:12;6.40;;;5.70;;
14686;SDS011;7431;49.440;11.084;2023-02-19T01:20:38;6.85;;;5.63;;
14686;SDS011;7431;49.440;11.084;2023-02-19T01:23:05;7.75;;;5.82;;
14686;SDS011;7431;49.440;11.084;2023-02-19T01:25:31;7.53;;;5.43;;
14686;SDS011;7431;49.440;11.084;2023-02-19T01:27:57;8.40;;;5.15;;
14686;SDS011;7431;49.440;11.084;2023-02-19T01:30:22;6.65;;;5.72;;
14686;SDS011;7431;49.440;11.084;2023-02-19T01:32:48;8.45;;;5.85;;
14686;SDS011;7431;49.440;11.084;2023-02-19T01:35:13;9.18;;;5.90;;
14686;SDS011;7431;49.440;11.084;2023-02-19T01:37:39;7.40;;;5.60;;
14686;SDS011;7431;49.440;11.084;2023-02-19T01:40:05;6.90;;;5.57;;
14686;SDS011;7431;49.440;11.084;2023-02-19T01:42:31;6.53;;;5.20;;
14686;SDS011;7431;49.440;11.084;2023-02-19T01:47:53;6.85;;;5.47;;
14686;SDS011;7431;49.440;11.084;2023-02-19T01:50:42;6.78;;;5.05;;
14686;SDS011;7431;49.440;11.084;2023-02-19T01:53:11;6.22;;;5.05;;
14686;SDS011;7431;49.440;11.084;2023-02-19T01:55:40;6.07;;;4.90;;
14686;SDS011;7431;49.440;11.084;2023-02-19T01:58:08;6.28;;;4.88;;
14686;SDS011;7431;49.440;11.084;2023-02-19T02:00:34;6.40;;;5.25;;
14686;SDS011;7431;49.440;11.084;2023-02-19T02:03:00;7.28;;;5.30;;
14686;SDS011;7431;49.440;11.084;2023-02-19T02:05:35;6.18;;;5.10;;
14686;SDS011;7431;49.440;11.084;2023-02-19T02:08:04;6.60;;;4.93;;
14686;SDS011;7431;49.440;11.084;2023-02-19T02:10:48;6.18;;;5.10;;
14686;SDS011;7431;49.440;11.084;2023-02-19T02:13:14;5.95;;;5.25;;
14686;SDS011;7431;49.440;11.084;2023-02-19T02:15:47;5.78;;;5.00;;
14686;SDS011;7431;49.440;11.084;2023-02-19T02:18:51;6.97;;;4.70;;
14686;SDS011;7431;49.440;11.084;2023-02-19T02:21:53;5.60;;;4.90;;
14686;SDS011;7431;49.440;11.084;2023-02-19T02:36:00;6.75;;;5.55;;
14686;SDS011;7431;49.440;11.084;2023-02-19T02:38:34;6.70;;;5.35;;
14686;SDS011;7431;49.440;11.084;2023-02-19T02:41:03;7.10;;;5.10;;
14686;SDS011;7431;49.440;11.084;2023-02-19T02:43:30;7.00;;;5.18;;
14686;SDS011;7431;49.440;11.084;2023-02-19T02:45:55;7.15;;;5.60;;
14686;SDS011;7431;49.440;11.084;2023-02-19T02:48:26;6.40;;;4.88;;
14686;SDS011;7431;49.440;11.084;2023-02-19T02:50:58;5.97;;;4.60;;
14686;SDS011;7431;49.440;11.084;2023-02-19T02:53:29;6.22;;;4.43;;
14686;SDS011;7431;49.440;11.084;2023-02-19T02:56:17;6.05;;;4.93;;
14686;SDS011;7431;49.440;11.084;2023-02-19T02:58:44;6.00;;;4.88;;
14686;SDS011;7431;49.440;11.084;2023-02-19T03:01:24;5.90;;;4.70;;
14686;SDS011;7431;49.440;11.084;2023-02-19T03:06:55;5.53;;;4.80;;
14686;SDS011;7431;49.440;11.084;2023-02-19T03:09:29;6.07;;;5.07;;
14686;SDS011;7431;49.440;11.084;2023-02-19T03:12:04;6.68;;;4.50;;
14686;SDS011;7431;49.440;11.084;2023-02-19T03:14:53;4.82;;;4.28;;
14686;SDS011;7431;49.440;11.084;2023-02-19T03:18:00;6.32;;;4.75;;
14686;SDS011;7431;49.440;11.084;2023-02-19T03:20:47;5.35;;;4.47;;
14686;SDS011;7431;49.440;11.084;2023-02-19T03:23:16;6.05;;;4.75;;
14686;SDS011;7431;49.440;11.084;2023-02-19T03:25:44;5.50;;;4.72;;
14686;SDS011;7431;49.440;11.084;2023-02-19T03:28:31;5.20;;;4.53;;
14686;SDS011;7431;49.440;11.084;2023-02-19T03:31:18;5.93;;;4.53;;
14686;SDS011;7431;49.440;11.084;2023-02-19T03:33:49;5.47;;;4.70;;
14686;SDS011;7431;49.440;11.084;2023-02-19T03:36:18;5.32;;;4.53;;
14686;SDS011;7431;49.440;11.084;2023-02-19T03:38:53;6.13;;;4.90;;
14686;SDS011;7431;49.440;11.084;2023-02-19T03:41:31;5.20;;;4.60;;
14686;SDS011;7431;49.440;11.084;2023-02-19T03:44:38;6.18;;;4.75;;
14686;SDS011;7431;49.440;11.084;2023-02-19T03:47:25;5.32;;;4.47;;
14686;SDS011;7431;49.440;11.084;2023-02-19T03:50:10;5.40;;;4.80;;
14686;SDS011;7431;49.440;11.084;2023-02-19T03:59:13;5.65;;;4.28;;
14686;SDS011;7431;49.440;11.084;2023-02-19T04:01:23;5.30;;;4.40;;
14686;SDS011;7431;49.440;11.084;2023-02-19T04:04:02;5.40;;;4.30;;
14686;SDS011;7431;49.440;11.084;2023-02-19T04:06:33;5.43;;;4.82;;
14686;SDS011;7431;49.440;11.084;2023-02-19T04:09:01;4.00;;;3.60;;
14686;SDS011;7431;49.440;11.084;2023-02-19T04:11:30;5.80;;;4.40;;
14686;SDS011;7431;49.440;11.084;2023-02-19T04:13:59;5.40;;;4.00;;
14686;SDS011;7431;49.440;11.084;2023-02-19T04:16:40;5.97;;;4.47;;
14686;SDS011;7431;49.440;11.084;2023-02-19T04:19:12;5.68;;;4.22;;
14686;SDS011;7431;49.440;11.084;2023-02-19T04:21:40;5.35;;;4.32;;
14686;SDS011;7431;49.440;11.084;2023-02-19T04:24:09;6.95;;;4.13;;
14686;SDS011;7431;49.440;11.084;2023-02-19T04:26:39;5.22;;;4.00;;
14686;SDS011;7431;49.440;11.084;2023-02-19T04:29:05;5.82;;;4.22;;
14686;SDS011;7431;49.440;11.084;2023-02-19T04:31:30;4.57;;;4.05;;
14686;SDS011;7431;49.440;11.084;2023-02-19T04:34:00;4.63;;;3.70;;
14686;SDS011;7431;49.440;11.084;2023-02-19T04:36:26;4.88;;;3.72;;
14686;SDS011;7431;49.440;11.084;2023-02-19T04:38:52;4.63;;;3.78;;
14686;SDS011;7431;49.440;11.084;2023-02-19T04:41:26;6.10;;;4.10;;
14686;SDS011;7431;49.440;11.084;2023-02-19T04:43:52;5.03;;;3.78;;
14686;SDS011;7431;49.440;11.084;2023-02-19T04:46:17;5.70;;;3.95;;
14686;SDS011;7431;49.440;11.084;2023-02-19T04:48:43;5.65;;;4.45;;
14686;SDS011;7431;49.440;11.084;2023-02-19T04:51:09;6.45;;;4.50;;
14686;SDS011;7431;49.440;11.084;2023-02-19T04:53:35;6.97;;;4.35;;
14686;SDS011;7431;49.440;11.084;2023-02-19T04:56:08;4.45;;;3.97;;
14686;SDS011;7431;49.440;11.084;2023-02-19T04:58:38;4.93;;;4.35;;
14686;SDS011;7431;49.440;11.084;2023-02-19T05:01:04;4.15;;;3.63;;
14686;SDS011;7431;49.440;11.084;2023-02-19T05:03:31;6.65;;;3.67;;
14686;SDS011;7431;49.440;11.084;2023-02-19T05:06:00;5.85;;;3.72;;
14686;SDS011;7431;49.440;11.084;2023-02-19T05:08:30;6.07;;;3.88;;
14686;SDS011;7431;49.440;11.084;2023-02-19T05:10:57;5.93;;;3.92;;
14686;SDS011;7431;49.440;11.084;2023-02-19T05:13:27;4.60;;;3.72;;
14686;SDS011;7431;49.440;11.084;2023-02-19T05:16:00;4.90;;;3.75;;
14686;SDS011;7431;49.440;11.084;2023-02-19T05:18:38;4.07;;;3.67;;
14686;SDS011;7431;49.440;11.084;2023-02-19T05:21:04;4.30;;;3.72;;
14686;SDS011;7431;49.440;11.084;2023-02-19T05:23:30;4.10;;;3.42;;
14686;SDS011;7431;49.440;11.084;2023-02-19T05:25:55;4.63;;;3.92;;
14686;SDS011;7431;49.440;11.084;2023-02-19T05:28:21;4.20;;;3.75;;
14686;SDS011;7431;49.440;11.084;2023-02-19T05:30:53;5.43;;;3.50;;
14686;SDS011;7431;49.440;11.084;2023-02-19T05:33:20;4.70;;;3.60;;
14686;SDS011;7431;49.440;11.084;2023-02-19T05:35:50;4.18;;;3.10;;
14686;SDS011;7431;49.440;11.084;2023-02-19T05:38:19;4.75;;;3.50;;
14686;SDS011;7431;49.440;11.084;2023-02-19T05:40:45;4.30;;;3.38;;
14686;SDS011;7431;49.440;11.084;2023-02-19T05:43:11;4.78;;;3.72;;
14686;SDS011;7431;49.440;11.084;2023-02-19T05:45:38;4.70;;;3.65;;
14686;SDS011;7431;49.440;11.084;2023-02-19T05:48:04;4.20;;;3.80;;
14686;SDS011;7431;49.440;11.084;2023-02-19T05:50:31;5.00;;;3.90;;
14686;SDS011;7431;49.440;11.084;2023-02-19T05:52:59;3.65;;;3.03;;
14686;SDS011;7431;49.440;11.084;2023-02-19T05:55:25;4.90;;;3.45;;
14686;SDS011;7431;49.440;11.084;2023-02-19T05:57:51;4.28;;;3.42;;
14686;SDS011;7431;49.440;11.084;2023-02-19T06:00:17;3.83;;;3.35;;
14686;SDS011;7431;49.440;11.084;2023-02-19T06:02:44;4.38;;;3.85;;
14686;SDS011;7431;49.440;11.084;2023-02-19T06:05:11;5.32;;;3.80;;
14686;SDS011;7431;49.440;11.084;2023-02-19T06:07:37;3.72;;;3.33;;
14686;SDS011;7431;49.440;11.084;2023-02-19T06:10:04;4.20;;;3.45;;
14686;SDS011;7431;49.440;11.084;2023-02-19T06:12:30;4.05;;;3.28;;
14686;SDS011;7431;49.440;11.084;2023-02-19T06:14:56;4.22;;;3.50;;
14686;SDS011;7431;49.440;11.084;2023-02-19T06:17:22;3.80;;;3.30;;
14686;SDS011;7431;49.440;11.084;2023-02-19T06:19:47;4.03;;;3.30;;
14686;SDS011;7431;49.440;11.084;2023-02-19T06:22:13;4.50;;;3.53;;
14686;SDS011;7431;49.440;11.084;2023-02-19T06:24:39;5.75;;;3.60;;
14686;SDS011;7431;49.440;11.084;2023-02-19T06:27:05;5.90;;;3.35;;
14686;SDS011;7431;49.440;11.084;2023-02-19T06:29:32;4.55;;;3.35;;
14686;SDS011;7431;49.440;11.084;2023-02-19T06:31:58;4.35;;;3.65;;
14686;SDS011;7431;49.440;11.084;2023-02-19T06:34:24;4.50;;;3.40;;
14686;SDS011;7431;49.440;11.084;2023-02-19T06:36:50;5.32;;;3.38;;
14686;SDS011;7431;49.440;11.084;2023-02-19T06:39:15;3.88;;;3.47;;
14686;SDS011;7431;49.440;11.084;2023-02-19T06:41:41;3.92;;;3.10;;
14686;SDS011;7431;49.440;11.084;2023-02-19T06:44:07;3.72;;;3.22;;
14686;SDS011;7431;49.440;11.084;2023-02-19T06:46:33;4.05;;;3.20;;
14686;SDS011;7431;49.440;11.084;2023-02-19T06:48:59;5.97;;;3.42;;
14686;SDS011;7431;49.440;11.084;2023-02-19T06:51:24;4.38;;;3.28;;
14686;SDS011;7431;49.440;11.084;2023-02-19T06:53:52;3.70;;;3.30;;
14686;SDS011;7431;49.440;11.084;2023-02-19T06:56:25;3.97;;;3.38;;
14686;SDS011;7431;49.440;11.084;2023-02-19T06:58:59;3.70;;;3.25;;
14686;SDS011;7431;49.440;11.084;2023-02-19T07:01:27;4.47;;;2.90;;
14686;SDS011;7431;49.440;11.084;2023-02-19T07:03:54;4.82;;;3.10;;
14686;SDS011;7431;49.440;11.084;2023-02-19T07:06:20;3.33;;;2.85;;
14686;SDS011;7431;49.440;11.084;2023-02-19T07:08:48;3.15;;;2.67;;
14686;SDS011;7431;49.440;11.084;2023-02-19T07:11:14;3.63;;;2.95;;
14686;SDS011;7431;49.440;11.084;2023-02-19T07:13:40;3.83;;;2.75;;
14686;SDS011;7431;49.440;11.084;2023-02-19T07:16:06;3.63;;;3.10;;
14686;SDS011;7431;49.440;11.084;2023-02-19T07:18:33;3.58;;;2.90;;
14686;SDS011;7431;49.440;11.084;2023-02-19T07:21:03;3.20;;;2.90;;
14686;SDS011;7431;49.440;11.084;2023-02-19T07:23:29;5.30;;;3.00;;
14686;SDS011;7431;49.440;11.084;2023-02-19T07:25:55;4.38;;;3.30;;
14686;SDS011;7431;49.440;11.084;2023-02-19T07:28:20;6.25;;;3.33;;
14686;SDS011;7431;49.440;11.084;2023-02-19T07:30:46;4.15;;;3.20;;
14686;SDS011;7431;49.440;11.084;2023-02-19T07:33:11;4.22;;;3.10;;
14686;SDS011;7431;49.440;11.084;2023-02-19T07:35:37;3.33;;;2.90;;
14686;SDS011;7431;49.440;11.084;2023-02-19T07:38:08;3.35;;;2.88;;
14686;SDS011;7431;49.440;11.084;2023-02-19T07:40:34;3.35;;;2.70;;
14686;SDS011;7431;49.440;11.084;2023-02-19T07:43:00;4.15;;;2.65;;
14686;SDS011;7431;49.440;11.084;2023-02-19T07:45:26;2.95;;;2.42;;
14686;SDS011;7431;49.440;11.084;2023-02-19T07:47:51;3.13;;;2.83;;
14686;SDS011;7431;49.440;11.084;2023-02-19T07:50:17;3.53;;;2.85;;
14686;SDS011;7431;49.440;11.084;2023-02-19T07:52:42;3.03;;;2.72;;
14686;SDS011;7431;49.440;11.084;2023-02-19T07:55:08;3.05;;;2.67;;
14686;SDS011;7431;49.440;11.084;2023-02-19T07:57:34;2.90;;;2.60;;
14686;SDS011;7431;49.440;11.084;2023-02-19T07:59:59;3.22;;;2.75;;
14686;SDS011;7431;49.440;11.084;2023-02-19T08:02:25;3.00;;;2.50;;
14686;SDS011;7431;49.440;11.084;2023-02-19T08:05:09;3.05;;;2.70;;
14686;SDS011;7431;49.440;11.084;2023-02-19T08:07:35;4.65;;;2.65;;
14686;SDS011;7431;49.440;11.084;2023-02-19T08:10:01;3.42;;;2.97;;
14686;SDS011;7431;49.440;11.084;2023-02-19T08:12:56;3.20;;;2.70;;
14686;SDS011;7431;49.440;11.084;2023-02-19T08:15:42;2.85;;;2.50;;
14686;SDS011;7431;49.440;11.084;2023-02-19T08:18:09;2.67;;;2.30;;
14686;SDS011;7431;49.440;11.084;2023-02-19T08:20:35;3.20;;;2.47;;
14686;SDS011;7431;49.440;11.084;2023-02-19T08:23:00;3.42;;;2.70;;
14686;SDS011;7431;49.440;11.084;2023-02-19T08:25:26;2.80;;;2.47;;
14686;SDS011;7431;49.440;11.084;2023-02-19T08:27:52;2.65;;;2.40;;
14686;SDS011;7431;49.440;11.084;2023-02-19T08:30:18;2.58;;;2.30;;
14686;SDS011;7431;49.440;11.084;2023-02-19T08:32:43;3.03;;;2.60;;
14686;SDS011;7431;49.440;11.084;2023-02-19T08:35:09;2.97;;;2.67;;
14686;SDS011;7431;49.440;11.084;2023-02-19T08:37:34;2.88;;;2.50;;
14686;SDS011;7431;49.440;11.084;2023-02-19T08:40:00;2.95;;;2.33;;
14686;SDS011;7431;49.440;11.084;2023-02-19T08:42:27;3.97;;;2.67;;
14686;SDS011;7431;49.440;11.084;2023-02-19T08:44:52;2.47;;;2.28;;
14686;SDS011;7431;49.440;11.084;2023-02-19T08:47:18;2.88;;;2.60;;
14686;SDS011;7431;49.440;11.084;2023-02-19T08:49:43;3.15;;;2.50;;
14686;SDS011;7431;49.440;11.084;2023-02-19T08:52:09;3.38;;;2.88;;
14686;SDS011;7431;49.440;11.084;2023-02-19T08:54:35;3.05;;;2.65;;
14686;SDS011;7431;49.440;11.084;2023-02-19T08:57:00;3.55;;;2.78;;
14686;SDS011;7431;49.440;11.084;2023-02-19T08:59:27;2.75;;;2.40;;
14686;SDS011;7431;49.440;11.084;2023-02-19T09:01:53;3.30;;;2.55;;
14686;SDS011;7431;49.440;11.084;2023-02-19T09:04:18;2.72;;;2.42;;
14686;SDS011;7431;49.440;11.084;2023-02-19T09:06:44;3.03;;;2.55;;
14686;SDS011;7431;49.440;11.084;2023-02-19T09:09:09;3.58;;;2.65;;
14686;SDS011;7431;49.440;11.084;2023-02-19T09:11:37;3.10;;;2.80;;
14686;SDS011;7431;49.440;11.084;2023-02-19T09:14:03;3.58;;;2.42;;
14686;SDS011;7431;49.440;11.084;2023-02-19T09:16:31;3.17;;;2.50;;
14686;SDS011;7431;49.440;11.084;2023-02-19T09:19:00;2.78;;;2.47;;
14686;SDS011;7431;49.440;11.084;2023-02-19T09:21:27;2.53;;;2.33;;
14686;SDS011;7431;49.440;11.084;2023-02-19T09:23:53;3.00;;;2.40;;
14686;SDS011;7431;49.440;11.084;2023-02-19T09:26:18;2.70;;;2.40;;
14686;SDS011;7431;49.440;11.084;2023-02-19T09:28:44;2.65;;;2.30;;
14686;SDS011;7431;49.440;11.084;2023-02-19T09:31:10;2.60;;;2.40;;
14686;SDS011;7431;49.440;11.084;2023-02-19T09:33:45;3.10;;;2.40;;
14686;SDS011;7431;49.440;11.084;2023-02-19T09:36:11;2.80;;;2.17;;
14686;SDS011;7431;49.440;11.084;2023-02-19T09:38:38;2.47;;;2.03;;
14686;SDS011;7431;49.440;11.084;2023-02-19T09:41:11;2.90;;;2.38;;
14686;SDS011;7431;49.440;11.084;2023-02-19T09:43:40;2.85;;;2.40;;
14686;SDS011;7431;49.440;11.084;2023-02-19T09:49:06;2.63;;;2.25;;
14686;SDS011;7431;49.440;11.084;2023-02-19T09:51:37;3.08;;;2.10;;
14686;SDS011;7431;49.440;11.084;2023-02-19T09:54:05;1.92;;;1.73;;
14686;SDS011;7431;49.440;11.084;2023-02-19T09:56:35;2.83;;;2.35;;
14686;SDS011;7431;49.440;11.084;2023-02-19T09:59:01;2.30;;;1.95;;
14686;SDS011;7431;49.440;11.084;2023-02-19T10:01:27;2.42;;;2.08;;
14686;SDS011;7431;49.440;11.084;2023-02-19T10:04:01;2.22;;;2.03;;
14686;SDS011;7431;49.440;11.084;2023-02-19T10:06:28;2.55;;;2.00;;
14686;SDS011;7431;49.440;11.084;2023-02-19T10:09:17;2.15;;;1.95;;
14686;SDS011;7431;49.440;11.084;2023-02-19T10:11:47;2.40;;;2.20;;
14686;SDS011;7431;49.440;11.084;2023-02-19T10:16:50;2.15;;;1.95;;
14686;SDS011;7431;49.440;11.084;2023-02-19T10:19:17;2.03;;;1.80;;
14686;SDS011;7431;49.440;11.084;2023-02-19T10:21:43;3.55;;;2.30;;
14686;SDS011;7431;49.440;11.084;2023-02-19T10:24:12;2.08;;;1.88;;
14686;SDS011;7431;49.440;11.084;2023-02-19T10:26:44;2.38;;;2.08;;
14686;SDS011;7431;49.440;11.084;2023-02-19T10:29:09;2.30;;;2.10;;
14686;SDS011;7431;49.440;11.084;2023-02-19T10:31:35;2.00;;;1.90;;
14686;SDS011;7431;49.440;11.084;2023-02-19T10:34:01;2.42;;;2.15;;
14686;SDS011;7431;49.440;11.084;2023-02-19T10:36:37;2.20;;;2.00;;
14686;SDS011;7431;49.440;11.084;2023-02-19T10:41:46;2.10;;;1.90;;
14686;SDS011;7431;49.440;11.084;2023-02-19T10:44:13;2.35;;;2.10;;
14686;SDS011;7431;49.440;11.084;2023-02-19T10:46:42;2.22;;;2.00;;
14686;SDS011;7431;49.440;11.084;2023-02-19T10:51:54;3.33;;;2.17;;
14686;SDS011;7431;49.440;11.084;2023-02-19T10:59:47;2.38;;;2.10;;
14686;SDS011;7431;49.440;11.084;2023-02-19T11:02:15;2.40;;;2.20;;
14686;SDS011;7431;49.440;11.084;2023-02-19T11:05:00;1.75;;;1.63;;
14686;SDS011;7431;49.440;11.084;2023-02-19T11:07:32;3.13;;;2.40;;
14686;SDS011;7431;49.440;11.084;2023-02-19T11:10:00;2.22;;;1.95;;
14686;SDS011;7431;49.440;11.084;2023-02-19T11:12:28;3.90;;;2.15;;
14686;SDS011;7431;49.440;11.084;2023-02-19T11:14:55;2.42;;;2.10;;
14686;SDS011;7431;49.440;11.084;2023-02-19T11:17:24;2.10;;;1.90;;
14686;SDS011;7431;49.440;11.084;2023-02-19T11:19:56;2.38;;;2.10;;
14686;SDS011;7431;49.440;11.084;2023-02-19T11:22:37;2.17;;;1.98;;
14686;SDS011;7431;49.440;11.084;2023-02-19T11:27:34;2.78;;;2.30;;
14686;SDS011;7431;49.440;11.084;2023-02-19T11:30:19;2.13;;;1.88;;
14686;SDS011;7431;49.440;11.084;2023-02-19T11:32:45;3.40;;;2.00;;
14686;SDS011;7431;49.440;11.084;2023-02-19T11:35:15;2.25;;;2.03;;
14686;SDS011;7431;49.440;11.084;2023-02-19T11:37:59;2.10;;;1.90;;
14686;SDS011;7431;49.440;11.084;2023-02-19T11:40:39;2.10;;;1.90;;
14686;SDS011;7431;49.440;11.084;2023-02-19T11:48:38;1.83;;;1.52;;
14686;SDS011;7431;49.440;11.084;2023-02-19T11:51:22;2.00;;;1.70;;
14686;SDS011;7431;49.440;11.084;2023-02-19T11:54:17;2.30;;;1.70;;
14686;SDS011;7431;49.440;11.084;2023-02-19T11:57:02;1.70;;;1.60;;
14686;SDS011;7431;49.440;11.084;2023-02-19T12:02:53;2.50;;;2.13;;
14686;SDS011;7431;49.440;11.084;2023-02-19T12:05:38;2.00;;;1.80;;
14686;SDS011;7431;49.440;11.084;2023-02-19T12:10:50;1.95;;;1.75;;
14686;SDS011;7431;49.440;11.084;2023-02-19T12:16:08;2.72;;;2.10;;
14686;SDS011;7431;49.440;11.084;2023-02-19T12:21:29;2.28;;;1.98;;
14686;SDS011;7431;49.440;11.084;2023-02-19T12:27:05;2.17;;;1.88;;
14686;SDS011;7431;49.440;11.084;2023-02-19T12:35:49;1.90;;;1.70;;
14686;SDS011;7431;49.440;11.084;2023-02-19T12:43:51;2.10;;;1.90;;
14686;SDS011;7431;49.440;11.084;2023-02-19T12:46:26;2.10;;;1.90;;
14686;SDS011;7431;49.440;11.084;2023-02-19T12:49:06;2.25;;;2.00;;
14686;SDS011;7431;49.440;11.084;2023-02-19T12:51:42;2.63;;;2.00;;
14686;SDS011;7431;49.440;11.084;2023-02-19T12:54:34;2.28;;;2.00;;
14686;SDS011;7431;49.440;11.084;2023-02-19T13:00:11;2.30;;;2.10;;
14686;SDS011;7431;49.440;11.084;2023-02-19T13:02:52;2.30;;;2.10;;
14686;SDS011;7431;49.440;11.084;2023-02-19T13:05:31;3.17;;;2.22;;
14686;SDS011;7431;49.440;11.084;2023-02-19T13:08:23;2.10;;;1.90;;
14686;SDS011;7431;49.440;11.084;2023-02-19T13:10:58;2.20;;;1.88;;
14686;SDS011;7431;49.440;11.084;2023-02-19T13:13:37;2.30;;;2.10;;
14686;SDS011;7431;49.440;11.084;2023-02-19T13:16:18;2.55;;;1.77;;
14686;SDS011;7431;49.440;11.084;2023-02-19T13:18:48;2.28;;;2.08;;
14686;SDS011;7431;49.440;11.084;2023-02-19T13:21:18;2.35;;;2.15;;
14686;SDS011;7431;49.440;11.084;2023-02-19T13:24:06;2.15;;;1.92;;
14686;SDS011;7431;49.440;11.084;2023-02-19T13:29:31;2.28;;;1.90;;
14686;SDS011;7431;49.440;11.084;2023-02-19T13:35:20;2.22;;;2.03;;
14686;SDS011;7431;49.440;11.084;2023-02-19T13:38:18;2.35;;;2.05;;
14686;SDS011;7431;49.440;11.084;2023-02-19T13:40:54;2.45;;;2.03;;
14686;SDS011;7431;49.440;11.084;2023-02-19T13:43:28;2.30;;;2.10;;
14686;SDS011;7431;49.440;11.084;2023-02-19T13:46:02;2.33;;;2.10;;
14686;SDS011;7431;49.440;11.084;2023-02-19T13:48:34;2.88;;;2.20;;
14686;SDS011;7431;49.440;11.084;2023-02-19T13:56:57;2.08;;;1.88;;
14686;SDS011;7431;49.440;11.084;2023-02-19T14:04:21;2.75;;;2.30;;
14686;SDS011;7431;49.440;11.084;2023-02-19T14:14:37;3.53;;;3.10;;
14686;SDS011;7431;49.440;11.084;2023-02-19T14:17:22;4.75;;;4.25;;
14686;SDS011;7431;49.440;11.084;2023-02-19T14:20:02;7.80;;;6.35;;
14686;SDS011;7431;49.440;11.084;2023-02-19T14:30:39;6.63;;;2.90;;
14686;SDS011;7431;49.440;11.084;2023-02-19T14:33:10;2.90;;;2.45;;
14686;SDS011;7431;49.440;11.084;2023-02-19T14:35:43;3.53;;;2.30;;
14686;SDS011;7431;49.440;11.084;2023-02-19T14:38:18;2.72;;;2.15;;
14686;SDS011;7431;49.440;11.084;2023-02-19T14:40:54;3.28;;;2.53;;
14686;SDS011;7431;49.440;11.084;2023-02-19T14:43:21;2.65;;;2.35;;
14686;SDS011;7431;49.440;11.084;2023-02-19T14:45:50;2.85;;;2.25;;
14686;SDS011;7431;49.440;11.084;2023-02-19T14:48:43;2.83;;;2.53;;
14686;SDS011;7431;49.440;11.084;2023-02-19T14:51:11;3.10;;;2.35;;
14686;SDS011;7431;49.440;11.084;2023-02-19T14:53:48;3.17;;;2.75;;
14686;SDS011;7431;49.440;11.084;2023-02-19T14:56:33;4.97;;;3.95;;
14686;SDS011;7431;49.440;11.084;2023-02-19T14:59:07;3.42;;;2.75;;
14686;SDS011;7431;49.440;11.084;2023-02-19T15:01:52;3.33;;;2.20;;
14686;SDS011;7431;49.440;11.084;2023-02-19T15:04:22;5.03;;;3.00;;
14686;SDS011;7431;49.440;11.084;2023-02-19T15:06:50;5.15;;;3.10;;
14686;SDS011;7431;49.440;11.084;2023-02-19T15:09:18;6.32;;;3.72;;
14686;SDS011;7431;49.440;11.084;2023-02-19T15:11:45;5.88;;;2.80;;
14686;SDS011;7431;49.440;11.084;2023-02-19T15:14:15;7.18;;;3.65;;
14686;SDS011;7431;49.440;11.084;2023-02-19T15:16:45;7.32;;;3.75;;
14686;SDS011;7431;49.440;11.084;2023-02-19T15:19:11;9.75;;;4.30;;
14686;SDS011;7431;49.440;11.084;2023-02-19T15:21:42;10.57;;;3.80;;
14686;SDS011;7431;49.440;11.084;2023-02-19T15:24:12;9.10;;;4.25;;
14686;SDS011;7431;49.440;11.084;2023-02-19T15:26:41;5.90;;;3.35;;
14686;SDS011;7431;49.440;11.084;2023-02-19T15:29:12;9.18;;;4.22;;
14686;SDS011;7431;49.440;11.084;2023-02-19T15:34:15;10.30;;;4.10;;
14686;SDS011;7431;49.440;11.084;2023-02-19T15:36:55;7.15;;;4.18;;
14686;SDS011;7431;49.440;11.084;2023-02-19T15:39:23;9.48;;;3.78;;
14686;SDS011;7431;49.440;11.084;2023-02-19T15:41:53;5.10;;;3.35;;
14686;SDS011;7431;49.440;11.084;2023-02-19T15:44:29;4.78;;;3.10;;
14686;SDS011;7431;49.440;11.084;2023-02-19T15:46:56;6.53;;;3.55;;
14686;SDS011;7431;49.440;11.084;2023-02-19T15:49:32;9.80;;;3.75;;
14686;SDS011;7431;49.440;11.084;2023-02-19T15:57:48;11.38;;;3.30;;
14686;SDS011;7431;49.440;11.084;2023-02-19T16:00:25;7.13;;;3.80;;
14686;SDS011;7431;49.440;11.084;2023-02-19T16:02:54;11.77;;;4.50;;
14686;SDS011;7431;49.440;11.084;2023-02-19T16:05:23;12.40;;;7.03;;
14686;SDS011;7431;49.440;11.084;2023-02-19T16:10:53;10.63;;;3.45;;
14686;SDS011;7431;49.440;11.084;2023-02-19T16:13:24;11.88;;;3.67;;
14686;SDS011;7431;49.440;11.084;2023-02-19T16:16:01;10.73;;;4.47;;
14686;SDS011;7431;49.440;11.084;2023-02-19T16:18:30;8.10;;;3.78;;
14686;SDS011;7431;49.440;11.084;2023-02-19T16:20:56;6.35;;;4.18;;
14686;SDS011;7431;49.440;11.084;2023-02-19T16:23:22;10.70;;;7.30;;
14686;SDS011;7431;49.440;11.084;2023-02-19T16:25:55;9.57;;;5.32;;
14686;SDS011;7431;49.440;11.084;2023-02-19T16:28:24;11.43;;;6.30;;
14686;SDS011;7431;49.440;11.084;2023-02-19T16:30:58;5.82;;;3.25;;
14686;SDS011;7431;49.440;11.084;2023-02-19T16:35:56;8.20;;;4.22;;
14686;SDS011;7431;49.440;11.084;2023-02-19T16:38:21;9.93;;;3.50;;
14686;SDS011;7431;49.440;11.084;2023-02-19T16:45:44;7.03;;;3.10;;
14686;SDS011;7431;49.440;11.084;2023-02-19T16:48:11;10.38;;;3.20;;
14686;SDS011;7431;49.440;11.084;2023-02-19T16:50:38;9.52;;;3.10;;
14686;SDS011;7431;49.440;11.084;2023-02-19T16:53:14;10.07;;;3.20;;
14686;SDS011;7431;49.440;11.084;2023-02-19T16:55:44;6.43;;;2.85;;
14686;SDS011;7431;49.440;11.084;2023-02-19T16:58:10;13.48;;;3.33;;
14686;SDS011;7431;49.440;11.084;2023-02-19T17:00:35;10.32;;;3.42;;
14686;SDS011;7431;49.440;11.084;2023-02-19T17:03:02;9.45;;;3.60;;
14686;SDS011;7431;49.440;11.084;2023-02-19T17:05:33;12.32;;;3.05;;
14686;SDS011;7431;49.440;11.084;2023-02-19T17:08:00;9.77;;;3.10;;
14686;SDS011;7431;49.440;11.084;2023-02-19T17:10:27;9.02;;;3.00;;
14686;SDS011;7431;49.440;11.084;2023-02-19T17:12:53;8.00;;;3.17;;
14686;SDS011;7431;49.440;11.084;2023-02-19T17:15:20;9.10;;;3.20;;
14686;SDS011;7431;49.440;11.084;2023-02-19T17:17:46;9.23;;;3.65;;